sensor_id;sensor_type;location;lat;lon;timestamp;P1;durP1;ratioP1;P2;durP2;ratioP2
67378;SDS011;54262;44.642;-0.974;2024-03-17T00:06:11;3.50;;;1.98;;
67378;SDS011;54262;44.642;-0.974;2024-03-17T00:08:37;2.20;;;2.00;;
67378;SDS011;54262;44.642;-0.974;2024-03-17T00:16:13;7.97;;;5.10;;
67378;SDS011;54262;44.642;-0.974;2024-03-17T00:18:47;4.63;;;4.32;;
67378;SDS011;54262;44.642;-0.974;2024-03-17T00:21:13;8.85;;;8.15;;
67378;SDS011;54262;44.642;-0.974;2024-03-17T00:23:38;7.88;;;7.10;;
67378;SDS011;54262;44.642;-0.974;2024-03-17T00:26:04;6.55;;;5.45;;
67378;SDS011;54262;44.642;-0.974;2024-03-17T00:28:30;5.90;;;3.55;;
67378;SDS011;54262;44.642;-0.974;2024-03-17T00:30:55;3.08;;;2.80;;
67378;SDS011;54262;44.642;-0.974;2024-03-17T00:33:21;2.60;;;2.40;;
67378;SDS011;54262;44.642;-0.974;2024-03-17T00:35:47;2.78;;;2.55;;
67378;SDS011;54262;44.642;-0.974;2024-03-17T00:38:13;2.60;;;2.22;;
67378;SDS011;54262;44.642;-0.974;2024-03-17T00:40:38;3.60;;;2.78;;
67378;SDS011;54262;44.642;-0.974;2024-03-17T00:43:06;6.53;;;3.22;;
67378;SDS011;54262;44.642;-0.974;2024-03-17T00:45:32;5.25;;;2.60;;
67378;SDS011;54262;44.642;-0.974;2024-03-17T00:48:00;2.72;;;2.50;;
67378;SDS011;54262;44.642;-0.974;2024-03-17T00:50:26;2.38;;;2.17;;
67378;SDS011;54262;44.642;-0.974;2024-03-17T00:52:52;2.70;;;2.30;;
67378;SDS011;54262;44.642;-0.974;2024-03-17T00:55:17;4.40;;;2.30;;
67378;SDS011;54262;44.642;-0.974;2024-03-17T00:57:43;2.17;;;1.98;;
67378;SDS011;54262;44.642;-0.974;2024-03-17T01:00:11;2.40;;;2.20;;
67378;SDS011;54262;44.642;-0.974;2024-03-17T01:02:37;2.58;;;1.90;;
67378;SDS011;54262;44.642;-0.974;2024-03-17T01:05:04;3.83;;;2.17;;
67378;SDS011;54262;44.642;-0.974;2024-03-17T01:07:31;2.28;;;2.00;;
67378;SDS011;54262;44.642;-0.974;2024-03-17T01:09:57;2.30;;;2.08;;
67378;SDS011;54262;44.642;-0.974;2024-03-17T01:12:22;2.83;;;2.63;;
67378;SDS011;54262;44.642;-0.974;2024-03-17T01:14:48;2.33;;;2.13;;
67378;SDS011;54262;44.642;-0.974;2024-03-17T01:17:14;2.30;;;1.83;;
67378;SDS011;54262;44.642;-0.974;2024-03-17T01:19:41;4.07;;;2.47;;
67378;SDS011;54262;44.642;-0.974;2024-03-17T01:22:07;3.50;;;2.13;;
67378;SDS011;54262;44.642;-0.974;2024-03-17T01:24:33;3.35;;;2.28;;
67378;SDS011;54262;44.642;-0.974;2024-03-17T01:26:58;5.07;;;2.20;;
67378;SDS011;54262;44.642;-0.974;2024-03-17T01:29:25;3.83;;;2.05;;
67378;SDS011;54262;44.642;-0.974;2024-03-17T01:31:50;3.58;;;1.88;;
67378;SDS011;54262;44.642;-0.974;2024-03-17T01:34:17;5.35;;;2.25;;
67378;SDS011;54262;44.642;-0.974;2024-03-17T01:36:46;2.67;;;1.92;;
67378;SDS011;54262;44.642;-0.974;2024-03-17T01:39:12;2.55;;;2.05;;
67378;SDS011;54262;44.642;-0.974;2024-03-17T01:41:38;2.83;;;1.77;;
67378;SDS011;54262;44.642;-0.974;2024-03-17T01:44:04;4.35;;;2.47;;
67378;SDS011;54262;44.642;-0.974;2024-03-17T01:46:29;2.22;;;1.98;;
67378;SDS011;54262;44.642;-0.974;2024-03-17T01:48:57;2.50;;;1.83;;
67378;SDS011;54262;44.642;-0.974;2024-03-17T01:51:24;2.97;;;2.25;;
67378;SDS011;54262;44.642;-0.974;2024-03-17T01:53:50;2.33;;;1.75;;
67378;SDS011;54262;44.642;-0.974;2024-03-17T01:56:16;2.00;;;1.80;;
67378;SDS011;54262;44.642;-0.974;2024-03-17T01:58:45;2.63;;;2.40;;
67378;SDS011;54262;44.642;-0.974;2024-03-17T02:01:11;3.58;;;2.25;;
67378;SDS011;54262;44.642;-0.974;2024-03-17T02:03:39;5.20;;;1.85;;
67378;SDS011;54262;44.642;-0.974;2024-03-17T02:06:07;4.10;;;2.05;;
67378;SDS011;54262;44.642;-0.974;2024-03-17T02:08:49;3.33;;;2.13;;
67378;SDS011;54262;44.642;-0.974;2024-03-17T02:11:34;2.33;;;1.92;;
67378;SDS011;54262;44.642;-0.974;2024-03-17T02:14:00;2.10;;;1.63;;
67378;SDS011;54262;44.642;-0.974;2024-03-17T02:16:28;2.55;;;2.25;;
67378;SDS011;54262;44.642;-0.974;2024-03-17T02:18:57;4.10;;;2.13;;
67378;SDS011;54262;44.642;-0.974;2024-03-17T02:21:25;2.58;;;2.10;;
67378;SDS011;54262;44.642;-0.974;2024-03-17T02:23:55;3.45;;;1.73;;
67378;SDS011;54262;44.642;-0.974;2024-03-17T02:26:21;1.95;;;1.80;;
67378;SDS011;54262;44.642;-0.974;2024-03-17T02:28:47;2.58;;;2.25;;
67378;SDS011;54262;44.642;-0.974;2024-03-17T02:31:14;2.38;;;1.63;;
67378;SDS011;54262;44.642;-0.974;2024-03-17T02:33:42;4.93;;;2.90;;
67378;SDS011;54262;44.642;-0.974;2024-03-17T02:36:08;2.47;;;2.05;;
67378;SDS011;54262;44.642;-0.974;2024-03-17T02:38:35;2.05;;;1.85;;
67378;SDS011;54262;44.642;-0.974;2024-03-17T02:41:20;2.17;;;1.98;;
67378;SDS011;54262;44.642;-0.974;2024-03-17T02:43:46;2.40;;;2.20;;
67378;SDS011;54262;44.642;-0.974;2024-03-17T02:46:13;2.13;;;1.92;;
67378;SDS011;54262;44.642;-0.974;2024-03-17T02:48:40;2.33;;;2.13;;
67378;SDS011;54262;44.642;-0.974;2024-03-17T02:53:43;2.65;;;2.10;;
67378;SDS011;54262;44.642;-0.974;2024-03-17T02:56:10;2.88;;;2.15;;
67378;SDS011;54262;44.642;-0.974;2024-03-17T02:58:36;2.17;;;1.80;;
67378;SDS011;54262;44.642;-0.974;2024-03-17T03:01:03;1.55;;;1.45;;
67378;SDS011;54262;44.642;-0.974;2024-03-17T03:03:30;3.95;;;2.20;;
67378;SDS011;54262;44.642;-0.974;2024-03-17T03:05:56;2.20;;;1.90;;
67378;SDS011;54262;44.642;-0.974;2024-03-17T03:08:22;2.50;;;2.20;;
67378;SDS011;54262;44.642;-0.974;2024-03-17T03:10:50;4.63;;;2.00;;
67378;SDS011;54262;44.642;-0.974;2024-03-17T03:13:16;3.05;;;2.05;;
67378;SDS011;54262;44.642;-0.974;2024-03-17T03:15:42;2.08;;;1.42;;
67378;SDS011;54262;44.642;-0.974;2024-03-17T03:18:08;2.88;;;2.00;;
67378;SDS011;54262;44.642;-0.974;2024-03-17T03:20:34;3.22;;;2.20;;
67378;SDS011;54262;44.642;-0.974;2024-03-17T03:23:03;2.17;;;1.63;;
67378;SDS011;54262;44.642;-0.974;2024-03-17T03:25:28;2.33;;;1.77;;
67378;SDS011;54262;44.642;-0.974;2024-03-17T03:27:54;2.72;;;1.80;;
67378;SDS011;54262;44.642;-0.974;2024-03-17T03:30:22;1.55;;;1.45;;
67378;SDS011;54262;44.642;-0.974;2024-03-17T03:32:48;2.75;;;2.00;;
67378;SDS011;54262;44.642;-0.974;2024-03-17T03:35:14;1.92;;;1.80;;
67378;SDS011;54262;44.642;-0.974;2024-03-17T03:37:40;3.38;;;2.05;;
67378;SDS011;54262;44.642;-0.974;2024-03-17T03:40:06;1.95;;;1.73;;
67378;SDS011;54262;44.642;-0.974;2024-03-17T03:42:44;2.03;;;1.80;;
67378;SDS011;54262;44.642;-0.974;2024-03-17T03:45:10;3.28;;;2.13;;
67378;SDS011;54262;44.642;-0.974;2024-03-17T03:47:39;2.75;;;2.42;;
67378;SDS011;54262;44.642;-0.974;2024-03-17T03:50:09;1.80;;;1.70;;
67378;SDS011;54262;44.642;-0.974;2024-03-17T03:52:37;2.65;;;2.05;;
67378;SDS011;54262;44.642;-0.974;2024-03-17T03:55:05;1.88;;;1.77;;
67378;SDS011;54262;44.642;-0.974;2024-03-17T03:57:32;2.47;;;1.88;;
67378;SDS011;54262;44.642;-0.974;2024-03-17T04:00:01;2.72;;;1.95;;
67378;SDS011;54262;44.642;-0.974;2024-03-17T04:02:37;6.13;;;2.72;;
67378;SDS011;54262;44.642;-0.974;2024-03-17T04:05:06;2.63;;;1.83;;
67378;SDS011;54262;44.642;-0.974;2024-03-17T04:07:32;4.10;;;2.30;;
67378;SDS011;54262;44.642;-0.974;2024-03-17T04:09:59;2.97;;;2.15;;
67378;SDS011;54262;44.642;-0.974;2024-03-17T04:12:25;2.13;;;1.83;;
67378;SDS011;54262;44.642;-0.974;2024-03-17T04:14:51;2.05;;;1.70;;
67378;SDS011;54262;44.642;-0.974;2024-03-17T04:17:19;3.10;;;1.77;;
67378;SDS011;54262;44.642;-0.974;2024-03-17T04:19:46;1.38;;;1.27;;
67378;SDS011;54262;44.642;-0.974;2024-03-17T04:22:14;3.45;;;2.13;;
67378;SDS011;54262;44.642;-0.974;2024-03-17T04:24:43;2.25;;;1.60;;
67378;SDS011;54262;44.642;-0.974;2024-03-17T04:27:10;2.30;;;2.10;;
67378;SDS011;54262;44.642;-0.974;2024-03-17T04:29:35;2.00;;;1.67;;
67378;SDS011;54262;44.642;-0.974;2024-03-17T04:32:01;2.35;;;2.08;;
67378;SDS011;54262;44.642;-0.974;2024-03-17T04:34:27;3.22;;;1.85;;
67378;SDS011;54262;44.642;-0.974;2024-03-17T04:36:53;2.00;;;1.60;;
67378;SDS011;54262;44.642;-0.974;2024-03-17T04:39:19;2.90;;;2.50;;
67378;SDS011;54262;44.642;-0.974;2024-03-17T04:41:45;2.72;;;1.95;;
67378;SDS011;54262;44.642;-0.974;2024-03-17T04:44:13;3.42;;;2.35;;
67378;SDS011;54262;44.642;-0.974;2024-03-17T04:46:39;1.67;;;1.58;;
67378;SDS011;54262;44.642;-0.974;2024-03-17T04:49:05;2.47;;;2.17;;
67378;SDS011;54262;44.642;-0.974;2024-03-17T04:51:30;2.25;;;2.08;;
67378;SDS011;54262;44.642;-0.974;2024-03-17T04:53:59;7.10;;;2.20;;
67378;SDS011;54262;44.642;-0.974;2024-03-17T04:56:24;1.77;;;1.67;;
67378;SDS011;54262;44.642;-0.974;2024-03-17T04:58:50;5.25;;;1.92;;
67378;SDS011;54262;44.642;-0.974;2024-03-17T05:01:16;2.00;;;1.90;;
67378;SDS011;54262;44.642;-0.974;2024-03-17T05:03:42;1.60;;;1.50;;
67378;SDS011;54262;44.642;-0.974;2024-03-17T05:06:07;5.43;;;1.48;;
67378;SDS011;54262;44.642;-0.974;2024-03-17T05:08:33;2.10;;;1.90;;
67378;SDS011;54262;44.642;-0.974;2024-03-17T05:11:03;3.17;;;1.80;;
67378;SDS011;54262;44.642;-0.974;2024-03-17T05:19:05;1.85;;;1.67;;
67378;SDS011;54262;44.642;-0.974;2024-03-17T05:21:31;3.60;;;1.77;;
67378;SDS011;54262;44.642;-0.974;2024-03-17T05:23:57;2.75;;;1.83;;
67378;SDS011;54262;44.642;-0.974;2024-03-17T05:26:25;2.42;;;2.20;;
67378;SDS011;54262;44.642;-0.974;2024-03-17T05:28:51;3.20;;;1.60;;
67378;SDS011;54262;44.642;-0.974;2024-03-17T05:31:17;2.33;;;2.13;;
67378;SDS011;54262;44.642;-0.974;2024-03-17T05:33:43;1.77;;;1.63;;
67378;SDS011;54262;44.642;-0.974;2024-03-17T05:36:09;1.83;;;1.73;;
67378;SDS011;54262;44.642;-0.974;2024-03-17T05:38:35;2.35;;;2.22;;
67378;SDS011;54262;44.642;-0.974;2024-03-17T05:41:01;2.00;;;1.65;;
67378;SDS011;54262;44.642;-0.974;2024-03-17T05:43:29;1.83;;;1.73;;
67378;SDS011;54262;44.642;-0.974;2024-03-17T05:46:01;2.28;;;1.85;;
67378;SDS011;54262;44.642;-0.974;2024-03-17T05:48:28;2.00;;;1.65;;
67378;SDS011;54262;44.642;-0.974;2024-03-17T05:51:03;2.13;;;1.92;;
67378;SDS011;54262;44.642;-0.974;2024-03-17T05:53:29;1.98;;;1.80;;
67378;SDS011;54262;44.642;-0.974;2024-03-17T05:56:03;1.48;;;1.38;;
67378;SDS011;54262;44.642;-0.974;2024-03-17T05:58:29;2.38;;;2.20;;
67378;SDS011;54262;44.642;-0.974;2024-03-17T06:00:55;2.30;;;2.10;;
67378;SDS011;54262;44.642;-0.974;2024-03-17T06:03:21;1.90;;;1.80;;
67378;SDS011;54262;44.642;-0.974;2024-03-17T06:05:47;2.35;;;2.15;;
67378;SDS011;54262;44.642;-0.974;2024-03-17T06:08:13;1.77;;;1.67;;
67378;SDS011;54262;44.642;-0.974;2024-03-17T06:10:43;2.20;;;1.90;;
67378;SDS011;54262;44.642;-0.974;2024-03-17T06:13:11;2.92;;;1.52;;
67378;SDS011;54262;44.642;-0.974;2024-03-17T06:15:38;2.33;;;2.13;;
67378;SDS011;54262;44.642;-0.974;2024-03-17T06:18:05;1.95;;;1.73;;
67378;SDS011;54262;44.642;-0.974;2024-03-17T06:20:33;1.70;;;1.60;;
67378;SDS011;54262;44.642;-0.974;2024-03-17T06:23:00;1.80;;;1.70;;
67378;SDS011;54262;44.642;-0.974;2024-03-17T06:25:25;3.53;;;2.00;;
67378;SDS011;54262;44.642;-0.974;2024-03-17T06:27:53;2.40;;;2.20;;
67378;SDS011;54262;44.642;-0.974;2024-03-17T06:30:22;3.22;;;2.85;;
67378;SDS011;54262;44.642;-0.974;2024-03-17T06:32:48;3.75;;;2.28;;
67378;SDS011;54262;44.642;-0.974;2024-03-17T06:40:24;3.70;;;2.70;;
67378;SDS011;54262;44.642;-0.974;2024-03-17T06:42:50;3.20;;;1.98;;
67378;SDS011;54262;44.642;-0.974;2024-03-17T06:45:17;2.30;;;2.10;;
67378;SDS011;54262;44.642;-0.974;2024-03-17T06:47:45;2.58;;;2.30;;
67378;SDS011;54262;44.642;-0.974;2024-03-17T06:50:11;3.05;;;2.78;;
67378;SDS011;54262;44.642;-0.974;2024-03-17T06:52:37;2.70;;;2.50;;
67378;SDS011;54262;44.642;-0.974;2024-03-17T06:55:03;2.47;;;2.28;;
67378;SDS011;54262;44.642;-0.974;2024-03-17T06:57:32;4.57;;;2.35;;
67378;SDS011;54262;44.642;-0.974;2024-03-17T07:00:01;3.58;;;2.60;;
67378;SDS011;54262;44.642;-0.974;2024-03-17T07:02:30;5.95;;;2.38;;
67378;SDS011;54262;44.642;-0.974;2024-03-17T07:04:57;2.92;;;2.33;;
67378;SDS011;54262;44.642;-0.974;2024-03-17T07:07:23;2.05;;;1.95;;
67378;SDS011;54262;44.642;-0.974;2024-03-17T07:09:51;3.40;;;2.75;;
67378;SDS011;54262;44.642;-0.974;2024-03-17T07:12:16;2.38;;;2.17;;
67378;SDS011;54262;44.642;-0.974;2024-03-17T07:14:42;2.38;;;2.17;;
67378;SDS011;54262;44.642;-0.974;2024-03-17T07:17:08;7.75;;;5.22;;
67378;SDS011;54262;44.642;-0.974;2024-03-17T07:19:33;3.08;;;2.50;;
67378;SDS011;54262;44.642;-0.974;2024-03-17T07:22:00;16.75;;;6.80;;
67378;SDS011;54262;44.642;-0.974;2024-03-17T07:24:26;37.25;;;12.07;;
67378;SDS011;54262;44.642;-0.974;2024-03-17T07:26:52;20.75;;;8.65;;
67378;SDS011;54262;44.642;-0.974;2024-03-17T07:29:20;4.57;;;4.05;;
67378;SDS011;54262;44.642;-0.974;2024-03-17T07:31:46;7.20;;;4.97;;
67378;SDS011;54262;44.642;-0.974;2024-03-17T07:34:12;2.60;;;2.40;;
67378;SDS011;54262;44.642;-0.974;2024-03-17T07:36:37;18.45;;;7.47;;
67378;SDS011;54262;44.642;-0.974;2024-03-17T07:39:04;29.15;;;9.57;;
67378;SDS011;54262;44.642;-0.974;2024-03-17T07:41:32;29.52;;;8.77;;
67378;SDS011;54262;44.642;-0.974;2024-03-17T07:43:58;10.90;;;5.53;;
67378;SDS011;54262;44.642;-0.974;2024-03-17T07:46:23;6.80;;;4.28;;
67378;SDS011;54262;44.642;-0.974;2024-03-17T07:48:49;4.25;;;2.70;;
67378;SDS011;54262;44.642;-0.974;2024-03-17T07:51:15;3.47;;;3.15;;
67378;SDS011;54262;44.642;-0.974;2024-03-17T07:53:45;2.67;;;2.47;;
67378;SDS011;54262;44.642;-0.974;2024-03-17T07:56:15;3.60;;;3.40;;
67378;SDS011;54262;44.642;-0.974;2024-03-17T07:58:43;3.30;;;2.75;;
67378;SDS011;54262;44.642;-0.974;2024-03-17T08:12:13;3.08;;;2.83;;
67378;SDS011;54262;44.642;-0.974;2024-03-17T08:14:38;2.75;;;2.55;;
67378;SDS011;54262;44.642;-0.974;2024-03-17T08:17:04;2.80;;;2.60;;
67378;SDS011;54262;44.642;-0.974;2024-03-17T08:19:31;3.13;;;2.83;;
67378;SDS011;54262;44.642;-0.974;2024-03-17T08:21:56;2.78;;;2.58;;
67378;SDS011;54262;44.642;-0.974;2024-03-17T08:24:22;3.53;;;3.17;;
67378;SDS011;54262;44.642;-0.974;2024-03-17T08:26:47;3.25;;;2.78;;
67378;SDS011;54262;44.642;-0.974;2024-03-17T08:29:13;2.60;;;2.40;;
67378;SDS011;54262;44.642;-0.974;2024-03-17T08:31:41;2.40;;;2.20;;
67378;SDS011;54262;44.642;-0.974;2024-03-17T08:34:09;2.92;;;2.72;;
67378;SDS011;54262;44.642;-0.974;2024-03-17T08:36:35;2.83;;;2.63;;
67378;SDS011;54262;44.642;-0.974;2024-03-17T08:39:01;2.33;;;2.13;;
67378;SDS011;54262;44.642;-0.974;2024-03-17T08:41:26;2.42;;;2.22;;
67378;SDS011;54262;44.642;-0.974;2024-03-17T08:43:52;3.28;;;2.92;;
67378;SDS011;54262;44.642;-0.974;2024-03-17T08:46:18;2.55;;;2.35;;
67378;SDS011;54262;44.642;-0.974;2024-03-17T08:48:44;2.80;;;2.60;;
67378;SDS011;54262;44.642;-0.974;2024-03-17T08:51:09;2.90;;;2.70;;
67378;SDS011;54262;44.642;-0.974;2024-03-17T08:58:37;2.65;;;2.45;;
67378;SDS011;54262;44.642;-0.974;2024-03-17T09:06:16;3.15;;;2.60;;
67378;SDS011;54262;44.642;-0.974;2024-03-17T09:08:43;2.28;;;2.17;;
67378;SDS011;54262;44.642;-0.974;2024-03-17T09:11:13;2.47;;;2.38;;
67378;SDS011;54262;44.642;-0.974;2024-03-17T09:13:39;2.38;;;2.17;;
67378;SDS011;54262;44.642;-0.974;2024-03-17T09:21:15;2.42;;;2.22;;
67378;SDS011;54262;44.642;-0.974;2024-03-17T09:23:42;2.90;;;2.70;;
67378;SDS011;54262;44.642;-0.974;2024-03-17T09:26:08;7.80;;;3.22;;
67378;SDS011;54262;44.642;-0.974;2024-03-17T09:28:35;2.50;;;2.30;;
67378;SDS011;54262;44.642;-0.974;2024-03-17T09:31:01;2.60;;;2.40;;
67378;SDS011;54262;44.642;-0.974;2024-03-17T09:33:30;2.65;;;2.38;;
67378;SDS011;54262;44.642;-0.974;2024-03-17T09:35:56;2.35;;;2.15;;
67378;SDS011;54262;44.642;-0.974;2024-03-17T09:38:26;3.05;;;2.85;;
67378;SDS011;54262;44.642;-0.974;2024-03-17T09:40:53;2.92;;;2.40;;
67378;SDS011;54262;44.642;-0.974;2024-03-17T09:43:20;2.33;;;2.15;;
67378;SDS011;54262;44.642;-0.974;2024-03-17T09:45:47;3.45;;;2.78;;
67378;SDS011;54262;44.642;-0.974;2024-03-17T09:48:14;2.72;;;2.53;;
67378;SDS011;54262;44.642;-0.974;2024-03-17T09:50:42;2.10;;;2.00;;
67378;SDS011;54262;44.642;-0.974;2024-03-17T09:55:43;2.55;;;2.35;;
67378;SDS011;54262;44.642;-0.974;2024-03-17T09:58:15;2.65;;;2.45;;
67378;SDS011;54262;44.642;-0.974;2024-03-17T10:00:44;7.40;;;2.60;;
67378;SDS011;54262;44.642;-0.974;2024-03-17T10:03:39;8.10;;;3.45;;
67378;SDS011;54262;44.642;-0.974;2024-03-17T10:06:08;5.95;;;3.25;;
67378;SDS011;54262;44.642;-0.974;2024-03-17T10:08:56;2.80;;;2.60;;
67378;SDS011;54262;44.642;-0.974;2024-03-17T10:11:24;8.70;;;3.25;;
67378;SDS011;54262;44.642;-0.974;2024-03-17T10:14:00;5.40;;;4.00;;
67378;SDS011;54262;44.642;-0.974;2024-03-17T10:16:30;10.60;;;3.20;;
67378;SDS011;54262;44.642;-0.974;2024-03-17T10:19:09;3.65;;;2.90;;
67378;SDS011;54262;44.642;-0.974;2024-03-17T10:21:43;3.65;;;3.35;;
67378;SDS011;54262;44.642;-0.974;2024-03-17T10:24:22;5.80;;;3.60;;
67378;SDS011;54262;44.642;-0.974;2024-03-17T10:26:50;2.53;;;2.28;;
67378;SDS011;54262;44.642;-0.974;2024-03-17T10:29:26;2.33;;;2.13;;
67378;SDS011;54262;44.642;-0.974;2024-03-17T10:31:59;3.13;;;2.38;;
67378;SDS011;54262;44.642;-0.974;2024-03-17T10:34:30;4.72;;;3.17;;
67378;SDS011;54262;44.642;-0.974;2024-03-17T10:39:45;2.85;;;2.65;;
67378;SDS011;54262;44.642;-0.974;2024-03-17T10:42:13;3.38;;;2.95;;
67378;SDS011;54262;44.642;-0.974;2024-03-17T10:44:40;2.80;;;2.60;;
67378;SDS011;54262;44.642;-0.974;2024-03-17T10:47:07;2.78;;;2.58;;
67378;SDS011;54262;44.642;-0.974;2024-03-17T10:49:38;3.40;;;2.35;;
67378;SDS011;54262;44.642;-0.974;2024-03-17T10:52:05;3.83;;;3.30;;
67378;SDS011;54262;44.642;-0.974;2024-03-17T10:54:32;3.47;;;2.85;;
67378;SDS011;54262;44.642;-0.974;2024-03-17T10:57:07;4.50;;;2.58;;
67378;SDS011;54262;44.642;-0.974;2024-03-17T10:59:47;3.83;;;2.17;;
67378;SDS011;54262;44.642;-0.974;2024-03-17T11:02:24;3.58;;;3.28;;
67378;SDS011;54262;44.642;-0.974;2024-03-17T11:04:57;4.63;;;2.90;;
67378;SDS011;54262;44.642;-0.974;2024-03-17T11:07:24;2.83;;;2.17;;
67378;SDS011;54262;44.642;-0.974;2024-03-17T11:09:52;5.45;;;2.70;;
67378;SDS011;54262;44.642;-0.974;2024-03-17T11:20:35;4.43;;;3.15;;
67378;SDS011;54262;44.642;-0.974;2024-03-17T11:23:02;5.30;;;2.53;;
67378;SDS011;54262;44.642;-0.974;2024-03-17T11:28:08;2.38;;;2.17;;
67378;SDS011;54262;44.642;-0.974;2024-03-17T11:46:46;2.60;;;2.40;;
67378;SDS011;54262;44.642;-0.974;2024-03-17T11:51:55;2.10;;;1.90;;
67378;SDS011;54262;44.642;-0.974;2024-03-17T11:54:32;2.72;;;2.47;;
67378;SDS011;54262;44.642;-0.974;2024-03-17T11:57:08;2.85;;;2.50;;
67378;SDS011;54262;44.642;-0.974;2024-03-17T11:59:38;2.97;;;2.78;;
67378;SDS011;54262;44.642;-0.974;2024-03-17T12:04:39;2.50;;;2.30;;
67378;SDS011;54262;44.642;-0.974;2024-03-17T12:07:11;2.60;;;2.40;;
67378;SDS011;54262;44.642;-0.974;2024-03-17T12:09:40;2.92;;;1.55;;
67378;SDS011;54262;44.642;-0.974;2024-03-17T12:12:11;2.13;;;2.03;;
67378;SDS011;54262;44.642;-0.974;2024-03-17T12:14:41;2.75;;;2.55;;
67378;SDS011;54262;44.642;-0.974;2024-03-17T12:17:07;2.50;;;2.30;;
67378;SDS011;54262;44.642;-0.974;2024-03-17T12:19:35;2.00;;;1.90;;
67378;SDS011;54262;44.642;-0.974;2024-03-17T12:22:02;2.33;;;1.77;;
67378;SDS011;54262;44.642;-0.974;2024-03-17T12:24:30;2.13;;;1.95;;
67378;SDS011;54262;44.642;-0.974;2024-03-17T12:26:58;2.60;;;2.40;;
67378;SDS011;54262;44.642;-0.974;2024-03-17T12:29:40;2.22;;;2.13;;
67378;SDS011;54262;44.642;-0.974;2024-03-17T12:32:07;2.13;;;1.95;;
67378;SDS011;54262;44.642;-0.974;2024-03-17T12:34:38;2.33;;;2.13;;
67378;SDS011;54262;44.642;-0.974;2024-03-17T12:37:06;2.58;;;2.38;;
67378;SDS011;54262;44.642;-0.974;2024-03-17T12:39:33;2.28;;;2.17;;
67378;SDS011;54262;44.642;-0.974;2024-03-17T12:42:10;3.05;;;2.20;;
67378;SDS011;54262;44.642;-0.974;2024-03-17T12:44:40;2.38;;;2.05;;
67378;SDS011;54262;44.642;-0.974;2024-03-17T12:47:16;1.75;;;1.65;;
67378;SDS011;54262;44.642;-0.974;2024-03-17T12:49:47;2.15;;;1.88;;
67378;SDS011;54262;44.642;-0.974;2024-03-17T12:52:23;1.98;;;1.88;;
67378;SDS011;54262;44.642;-0.974;2024-03-17T12:57:44;2.10;;;2.00;;
67378;SDS011;54262;44.642;-0.974;2024-03-17T13:00:29;2.28;;;2.17;;
67378;SDS011;54262;44.642;-0.974;2024-03-17T13:03:01;1.75;;;1.65;;
67378;SDS011;54262;44.642;-0.974;2024-03-17T13:05:28;1.48;;;1.17;;
67378;SDS011;54262;44.642;-0.974;2024-03-17T13:07:57;2.30;;;2.10;;
67378;SDS011;54262;44.642;-0.974;2024-03-17T13:15:35;1.75;;;1.65;;
67378;SDS011;54262;44.642;-0.974;2024-03-17T13:18:01;2.38;;;2.25;;
67378;SDS011;54262;44.642;-0.974;2024-03-17T13:20:29;2.20;;;2.10;;
67378;SDS011;54262;44.642;-0.974;2024-03-17T13:22:55;1.30;;;1.20;;
67378;SDS011;54262;44.642;-0.974;2024-03-17T13:25:22;2.10;;;2.00;;
67378;SDS011;54262;44.642;-0.974;2024-03-17T13:27:51;1.77;;;1.50;;
67378;SDS011;54262;44.642;-0.974;2024-03-17T13:30:18;1.52;;;1.10;;
67378;SDS011;54262;44.642;-0.974;2024-03-17T13:32:49;1.88;;;1.77;;
67378;SDS011;54262;44.642;-0.974;2024-03-17T13:35:20;2.13;;;1.90;;
67378;SDS011;54262;44.642;-0.974;2024-03-17T13:37:50;1.52;;;1.50;;
67378;SDS011;54262;44.642;-0.974;2024-03-17T13:40:18;1.63;;;1.52;;
67378;SDS011;54262;44.642;-0.974;2024-03-17T13:42:45;1.95;;;1.38;;
67378;SDS011;54262;44.642;-0.974;2024-03-17T13:45:12;1.83;;;1.73;;
67378;SDS011;54262;44.642;-0.974;2024-03-17T13:47:39;1.88;;;1.77;;
67378;SDS011;54262;44.642;-0.974;2024-03-17T13:50:05;1.73;;;1.63;;
67378;SDS011;54262;44.642;-0.974;2024-03-17T13:52:39;1.63;;;1.30;;
67378;SDS011;54262;44.642;-0.974;2024-03-17T13:55:29;1.88;;;1.75;;
67378;SDS011;54262;44.642;-0.974;2024-03-17T13:57:54;1.58;;;1.48;;
67378;SDS011;54262;44.642;-0.974;2024-03-17T14:00:22;1.70;;;1.25;;
67378;SDS011;54262;44.642;-0.974;2024-03-17T14:02:49;2.00;;;1.55;;
67378;SDS011;54262;44.642;-0.974;2024-03-17T14:05:16;1.40;;;1.30;;
67378;SDS011;54262;44.642;-0.974;2024-03-17T14:07:44;2.10;;;1.90;;
67378;SDS011;54262;44.642;-0.974;2024-03-17T14:10:12;1.88;;;1.77;;
67378;SDS011;54262;44.642;-0.974;2024-03-17T14:12:39;1.75;;;1.65;;
67378;SDS011;54262;44.642;-0.974;2024-03-17T14:15:05;2.30;;;1.92;;
67378;SDS011;54262;44.642;-0.974;2024-03-17T14:17:32;1.60;;;1.50;;
67378;SDS011;54262;44.642;-0.974;2024-03-17T14:19:58;1.35;;;1.25;;
67378;SDS011;54262;44.642;-0.974;2024-03-17T14:22:24;2.35;;;1.40;;
67378;SDS011;54262;44.642;-0.974;2024-03-17T14:24:50;1.25;;;1.15;;
67378;SDS011;54262;44.642;-0.974;2024-03-17T14:27:15;1.42;;;1.40;;
67378;SDS011;54262;44.642;-0.974;2024-03-17T14:29:42;1.10;;;1.10;;
67378;SDS011;54262;44.642;-0.974;2024-03-17T14:32:08;1.33;;;1.27;;
67378;SDS011;54262;44.642;-0.974;2024-03-17T14:34:34;0.90;;;0.90;;
67378;SDS011;54262;44.642;-0.974;2024-03-17T14:37:02;1.35;;;1.25;;
67378;SDS011;54262;44.642;-0.974;2024-03-17T14:39:30;2.25;;;1.10;;
67378;SDS011;54262;44.642;-0.974;2024-03-17T14:41:56;1.00;;;1.00;;
67378;SDS011;54262;44.642;-0.974;2024-03-17T14:44:22;1.60;;;1.50;;
67378;SDS011;54262;44.642;-0.974;2024-03-17T14:46:48;1.23;;;1.15;;
67378;SDS011;54262;44.642;-0.974;2024-03-17T14:49:16;1.42;;;1.40;;
67378;SDS011;54262;44.642;-0.974;2024-03-17T14:51:44;0.80;;;0.77;;
67378;SDS011;54262;44.642;-0.974;2024-03-17T14:54:10;0.98;;;0.80;;
67378;SDS011;54262;44.642;-0.974;2024-03-17T14:56:36;0.88;;;0.82;;
67378;SDS011;54262;44.642;-0.974;2024-03-17T14:59:02;1.25;;;1.20;;
67378;SDS011;54262;44.642;-0.974;2024-03-17T15:01:28;1.25;;;1.25;;
67378;SDS011;54262;44.642;-0.974;2024-03-17T15:03:55;1.02;;;1.02;;
67378;SDS011;54262;44.642;-0.974;2024-03-17T15:06:21;1.20;;;1.20;;
67378;SDS011;54262;44.642;-0.974;2024-03-17T15:08:47;1.02;;;1.02;;
67378;SDS011;54262;44.642;-0.974;2024-03-17T15:11:15;1.50;;;1.40;;
67378;SDS011;54262;44.642;-0.974;2024-03-17T15:13:43;0.93;;;0.93;;
67378;SDS011;54262;44.642;-0.974;2024-03-17T15:16:10;0.60;;;0.60;;
67378;SDS011;54262;44.642;-0.974;2024-03-17T15:18:36;0.90;;;0.90;;
67378;SDS011;54262;44.642;-0.974;2024-03-17T15:21:03;1.10;;;1.10;;
67378;SDS011;54262;44.642;-0.974;2024-03-17T15:23:32;1.08;;;1.08;;
67378;SDS011;54262;44.642;-0.974;2024-03-17T15:26:05;1.17;;;1.08;;
67378;SDS011;54262;44.642;-0.974;2024-03-17T15:28:33;1.00;;;1.00;;
67378;SDS011;54262;44.642;-0.974;2024-03-17T15:31:06;1.03;;;1.03;;
67378;SDS011;54262;44.642;-0.974;2024-03-17T15:33:33;1.83;;;1.27;;
67378;SDS011;54262;44.642;-0.974;2024-03-17T15:36:11;0.95;;;0.95;;
67378;SDS011;54262;44.642;-0.974;2024-03-17T15:38:37;1.02;;;1.02;;
67378;SDS011;54262;44.642;-0.974;2024-03-17T15:41:08;1.33;;;1.23;;
67378;SDS011;54262;44.642;-0.974;2024-03-17T15:43:36;1.10;;;1.10;;
67378;SDS011;54262;44.642;-0.974;2024-03-17T15:46:08;1.55;;;1.40;;
67378;SDS011;54262;44.642;-0.974;2024-03-17T15:48:41;0.90;;;0.90;;
67378;SDS011;54262;44.642;-0.974;2024-03-17T15:51:07;1.40;;;1.30;;
67378;SDS011;54262;44.642;-0.974;2024-03-17T15:53:32;0.70;;;0.70;;
67378;SDS011;54262;44.642;-0.974;2024-03-17T15:56:01;1.15;;;1.13;;
67378;SDS011;54262;44.642;-0.974;2024-03-17T15:58:28;1.40;;;1.02;;
67378;SDS011;54262;44.642;-0.974;2024-03-17T16:00:55;0.95;;;0.95;;
67378;SDS011;54262;44.642;-0.974;2024-03-17T16:03:30;0.60;;;0.60;;
67378;SDS011;54262;44.642;-0.974;2024-03-17T16:06:05;0.88;;;0.88;;
67378;SDS011;54262;44.642;-0.974;2024-03-17T16:08:38;0.85;;;0.85;;
67378;SDS011;54262;44.642;-0.974;2024-03-17T16:11:07;0.75;;;0.70;;
67378;SDS011;54262;44.642;-0.974;2024-03-17T16:13:36;2.00;;;0.65;;